Time;durP1;ratioP1;P1;durP2;ratioP2;P2;SDS_P1;SDS_P2;PMS_P1;PMS_P2;Temp;Humidity;BMP_temperature;BMP_pressure;BME280_temperature;BME280_humidity;BME280_pressure;Samples;Min_cycle;Max_cycle;Signal;HPM_P1;HPM_P2
2021/12/05 00:22:30;;;;;;;21.60;4.05;;;4.20;99.90;;;;;;5075888;28;20029;-74
2021/12/05 00:24:59;;;;;;;24.73;4.15;;;4.30;99.90;;;;;;5075653;28;20032;-74
2021/12/05 00:27:32;;;;;;;21.73;5.18;;;4.30;99.90;;;;;;5057781;28;20032;-74
2021/12/05 00:33:12;;;;;;;18.83;3.22;;;4.40;99.90;;;;;;5075438;28;20385;-74
2021/12/05 00:44:25;;;;;;;10.32;2.58;;;4.60;99.90;;;;;;5057614;28;20032;-74
2021/12/05 00:54:58;;;;;;;10.68;3.00;;;4.50;99.90;;;;;;5057315;28;20032;-74
2021/12/05 01:15:32;;;;;;;11.00;2.90;;;4.80;99.90;;;;;;5056654;28;20035;-74
2021/12/05 01:18:04;;;;;;;20.63;3.83;;;4.80;99.90;;;;;;5056678;28;20231;-75
2021/12/05 01:20:35;;;;;;;17.88;3.63;;;4.90;99.90;;;;;;5056831;28;20445;-74
2021/12/05 01:23:51;;;;;;;21.45;3.35;;;4.90;99.90;;;;;;5056710;28;20052;-74
2021/12/05 02:42:29;;;;;;;14.85;2.90;;;5.00;99.90;;;;;;5035016;28;20504;-74
2021/12/05 02:44:54;;;;;;;15.77;3.03;;;5.00;99.90;;;;;;5035314;28;20029;-74
2021/12/05 02:47:24;;;;;;;17.20;3.90;;;4.90;99.90;;;;;;5035513;28;20021;-75
2021/12/05 02:49:57;;;;;;;11.55;2.25;;;5.00;99.90;;;;;;5052972;28;20021;-75
2021/12/05 02:52:29;;;;;;;13.85;2.67;;;5.00;99.90;;;;;;5035198;28;20048;-75
2021/12/05 02:55:07;;;;;;;11.57;2.78;;;4.90;99.90;;;;;;5035001;28;20469;-75
2021/12/05 03:00:16;;;;;;;13.15;2.90;;;4.90;99.90;;;;;;5034949;28;20032;-75
2021/12/05 03:02:45;;;;;;;16.38;3.88;;;4.90;99.90;;;;;;5035132;28;20031;-75
2021/12/05 03:05:15;;;;;;;16.65;3.67;;;4.90;99.90;;;;;;5035130;28;20037;-75
2021/12/05 03:07:42;;;;;;;11.65;2.90;;;4.90;99.90;;;;;;5035368;28;20021;-75
2021/12/05 03:10:14;;;;;;;13.10;3.53;;;4.90;99.90;;;;;;5054690;28;20115;-75
2021/12/05 03:12:40;;;;;;;13.30;2.63;;;4.80;99.90;;;;;;5073021;28;20056;-75
2021/12/05 03:15:09;;;;;;;22.48;4.38;;;4.80;99.90;;;;;;5054793;28;20028;-76
2021/12/05 03:17:36;;;;;;;15.73;3.88;;;4.80;99.90;;;;;;5072811;28;20384;-75
2021/12/05 03:20:06;;;;;;;19.05;4.70;;;4.80;99.90;;;;;;5054569;28;20037;-75
2021/12/05 03:22:33;;;;;;;13.15;4.32;;;4.90;99.90;;;;;;5072680;28;20072;-76
2021/12/05 03:24:59;;;;;;;17.75;4.45;;;4.90;99.90;;;;;;5054195;28;20028;-76
2021/12/05 03:27:28;;;;;;;14.18;3.88;;;4.80;99.90;;;;;;5054756;28;20044;-75
2021/12/05 03:29:54;;;;;;;12.15;3.60;;;4.80;99.90;;;;;;5054479;28;20036;-75
2021/12/05 03:32:20;;;;;;;14.50;3.85;;;4.80;99.90;;;;;;5072583;28;20082;-75
2021/12/05 03:34:46;;;;;;;11.30;4.25;;;4.80;99.90;;;;;;5072555;28;20028;-75
2021/12/05 03:37:12;;;;;;;13.18;4.07;;;4.80;99.90;;;;;;5072619;28;20472;-75
2021/12/05 03:39:39;;;;;;;14.93;5.05;;;4.80;99.90;;;;;;5054150;28;20032;-75
2021/12/05 03:42:06;;;;;;;10.38;3.60;;;4.80;99.90;;;;;;5054682;28;20031;-75
2021/12/05 03:44:35;;;;;;;12.82;4.20;;;4.70;99.90;;;;;;5054506;28;20025;-75
2021/12/05 03:47:05;;;;;;;9.68;3.60;;;4.80;99.90;;;;;;5054680;28;20124;-75
2021/12/05 03:49:34;;;;;;;9.97;2.83;;;4.80;99.90;;;;;;5054569;28;20017;-75
2021/12/05 03:52:05;;;;;;;5.75;3.47;;;4.80;99.90;;;;;;5072400;28;20071;-75
2021/12/05 03:54:32;;;;;;;13.50;3.50;;;4.80;99.90;;;;;;5054232;28;20025;-75
2021/12/05 03:56:59;;;;;;;13.10;3.55;;;4.80;99.90;;;;;;5054408;28;20029;-75
2021/12/05 03:59:28;;;;;;;12.55;3.42;;;4.80;99.90;;;;;;5054328;28;20032;-75
2021/12/05 04:01:57;;;;;;;14.20;3.85;;;4.80;99.90;;;;;;5054048;28;20025;-75
2021/12/05 04:04:23;;;;;;;12.32;3.22;;;4.80;99.90;;;;;;5038070;28;20037;-75
2021/12/05 04:06:49;;;;;;;10.10;3.58;;;4.80;99.90;;;;;;5054233;28;20029;-75
2021/12/05 04:09:17;;;;;;;7.07;3.38;;;4.80;99.90;;;;;;5053126;28;20382;-75
2021/12/05 04:11:55;;;;;;;12.13;3.92;;;4.80;99.90;;;;;;5058096;28;20025;-75
2021/12/05 04:14:24;;;;;;;9.25;4.05;;;4.80;99.90;;;;;;5041849;28;20150;-75
2021/12/05 04:16:51;;;;;;;14.32;4.05;;;4.80;99.90;;;;;;5075922;28;20040;-74
2021/12/05 04:19:17;;;;;;;12.07;3.88;;;4.80;99.90;;;;;;5057733;28;20059;-74
2021/12/05 04:21:44;;;;;;;15.02;3.55;;;4.90;99.90;;;;;;5057788;28;20435;-75
2021/12/05 04:24:12;;;;;;;12.55;4.10;;;4.80;99.90;;;;;;5057573;28;20020;-74
2021/12/05 04:26:39;;;;;;;13.93;3.63;;;4.80;99.90;;;;;;5041286;28;20024;-74
2021/12/05 04:29:06;;;;;;;9.32;3.95;;;4.80;99.90;;;;;;5037806;28;20473;-74
2021/12/05 04:31:33;;;;;;;8.23;3.53;;;4.90;99.90;;;;;;5037444;28;20021;-74
2021/12/05 04:33:59;;;;;;;11.90;4.00;;;4.80;99.90;;;;;;5037826;28;20400;-74
2021/12/05 04:36:25;;;;;;;7.22;4.60;;;4.90;99.90;;;;;;5037593;28;20074;-74
2021/12/05 04:38:51;;;;;;;10.15;3.55;;;4.90;99.90;;;;;;5037410;28;20041;-74
2021/12/05 04:41:17;;;;;;;13.25;4.72;;;4.80;99.90;;;;;;5055416;28;20515;-74
2021/12/05 04:43:47;;;;;;;8.07;3.63;;;4.70;99.90;;;;;;5037597;28;20102;-74
2021/12/05 04:46:19;;;;;;;8.63;3.33;;;4.70;99.90;;;;;;5037484;28;20378;-74
2021/12/05 04:48:49;;;;;;;11.05;4.38;;;4.80;99.90;;;;;;5037532;28;20074;-74
2021/12/05 04:51:17;;;;;;;9.55;4.47;;;4.80;99.90;;;;;;5037073;28;20413;-74
2021/12/05 04:53:43;;;;;;;9.98;3.90;;;4.80;99.90;;;;;;5037295;28;20040;-74
2021/12/05 04:56:11;;;;;;;8.15;4.20;;;4.80;99.90;;;;;;5020854;28;20095;-74
2021/12/05 04:58:37;;;;;;;10.98;3.97;;;4.80;99.90;;;;;;5037004;28;20045;-74
2021/12/05 05:01:05;;;;;;;11.68;4.25;;;4.70;99.90;;;;;;5037156;28;20021;-74
2021/12/05 05:03:31;;;;;;;8.35;3.60;;;4.70;99.90;;;;;;5054914;28;20399;-74
2021/12/05 05:06:17;;;;;;;10.73;4.22;;;4.70;99.90;;;;;;5054957;28;20036;-74
2021/12/05 05:08:47;;;;;;;9.00;4.25;;;4.80;99.90;;;;;;5064065;28;20037;-74
2021/12/05 05:11:16;;;;;;;11.13;4.63;;;4.80;99.90;;;;;;5057030;28;20024;-74
2021/12/05 05:13:43;;;;;;;7.10;4.20;;;4.80;99.90;;;;;;5074902;28;20469;-74
2021/12/05 05:16:09;;;;;;;11.68;4.80;;;4.80;99.90;;;;;;5074832;28;20127;-74
2021/12/05 05:18:53;;;;;;;12.93;5.53;;;4.80;99.90;;;;;;5074478;28;20388;-74
2021/12/05 05:29:12;;;;;;;11.70;4.43;;;4.80;99.90;;;;;;5054356;28;20079;-74
2021/12/05 05:50:40;;;;;;;15.15;4.63;;;4.90;99.90;;;;;;5053891;28;20037;-74
2021/12/05 05:53:07;;;;;;;11.68;5.15;;;4.80;99.90;;;;;;5054034;28;20059;-73
2021/12/05 05:55:34;;;;;;;15.65;5.60;;;4.80;99.90;;;;;;5054577;28;20370;-74
2021/12/05 05:58:07;;;;;;;15.85;6.32;;;4.70;99.90;;;;;;5054073;28;20040;-74
2021/12/05 06:00:40;;;;;;;14.63;6.70;;;4.80;99.90;;;;;;5053814;28;20037;-74
2021/12/05 06:03:21;;;;;;;13.40;6.85;;;4.90;99.90;;;;;;5053944;28;20032;-74
2021/12/05 06:05:53;;;;;;;14.85;7.05;;;5.00;99.90;;;;;;5035909;28;20037;-74
2021/12/05 06:08:22;;;;;;;10.68;7.85;;;4.80;99.90;;;;;;5059664;28;20077;-74
2021/12/05 06:10:48;;;;;;;12.00;7.18;;;4.90;99.90;;;;;;5073769;28;20111;-74
2021/12/05 06:13:17;;;;;;;11.52;7.47;;;4.90;99.90;;;;;;5073794;28;20107;-74
2021/12/05 06:15:43;;;;;;;13.82;7.03;;;4.90;99.90;;;;;;5056362;28;20008;-74
2021/12/05 06:18:09;;;;;;;13.40;7.97;;;4.80;99.90;;;;;;5073170;28;20442;-74
2021/12/05 06:20:34;;;;;;;28.17;13.27;;;4.90;99.90;;;;;;5073531;28;20124;-74
2021/12/05 06:23:01;;;;;;;13.63;7.25;;;4.80;99.90;;;;;;5073564;28;20024;-74
2021/12/05 06:25:30;;;;;;;15.13;7.25;;;4.90;99.90;;;;;;5066919;28;20036;-74
2021/12/05 06:28:01;;;;;;;8.68;6.78;;;4.80;99.90;;;;;;5053449;28;20021;-74
2021/12/05 06:46:05;;;;;;;33.80;15.63;;;4.70;99.90;;;;;;5053202;28;20025;-74
2021/12/05 06:48:32;;;;;;;25.00;12.18;;;4.70;99.90;;;;;;5052714;28;20416;-74
2021/12/05 06:50:58;;;;;;;32.40;14.30;;;4.70;99.90;;;;;;5053160;28;20023;-74
2021/12/05 06:53:24;;;;;;;32.88;14.80;;;4.70;99.90;;;;;;5035130;28;20549;-74
2021/12/05 06:55:50;;;;;;;27.13;13.70;;;5.00;99.90;;;;;;5052908;28;20055;-73
2021/12/05 06:58:16;;;;;;;27.17;13.27;;;5.20;99.90;;;;;;5052900;28;20029;-74
2021/12/05 07:00:41;;;;;;;21.73;12.82;;;5.00;99.90;;;;;;5052796;28;20041;-74
2021/12/05 07:03:08;;;;;;;21.92;10.95;;;4.90;99.90;;;;;;5055019;28;20063;-74
2021/12/05 07:05:48;;;;;;;21.30;8.05;;;4.90;99.90;;;;;;5054514;28;20528;-74
2021/12/05 07:08:16;;;;;;;12.60;7.50;;;4.90;99.90;;;;;;5067666;28;20029;-74
2021/12/05 07:15:50;;;;;;;10.63;5.07;;;4.80;99.90;;;;;;5052621;28;20611;-73
2021/12/05 07:21:25;;;;;;;8.57;5.18;;;4.60;99.90;;;;;;5072407;28;20056;-73
2021/12/05 07:43:09;;;;;;;7.78;5.70;;;4.80;99.90;;;;;;5027762;28;20040;-74
2021/12/05 07:45:45;;;;;;;7.05;5.35;;;4.90;99.90;;;;;;5074166;28;20035;-75
2021/12/05 07:48:16;;;;;;;6.68;4.50;;;4.90;99.90;;;;;;5058262;28;20143;-74
2021/12/05 07:50:52;;;;;;;6.77;5.17;;;5.00;99.90;;;;;;5075924;28;20036;-74
2021/12/05 07:53:25;;;;;;;7.30;4.85;;;5.00;99.90;;;;;;5074543;28;20285;-75
2021/12/05 07:55:54;;;;;;;9.38;5.28;;;5.10;99.90;;;;;;5074778;28;20036;-75
2021/12/05 07:58:49;;;;;;;6.70;4.68;;;5.10;99.90;;;;;;5057184;28;20040;-74
2021/12/05 08:14:20;;;;;;;4.32;3.78;;;5.00;99.90;;;;;;5075629;28;20032;-73
2021/12/05 08:15:11;;;;;;;4.40;2.95;;;4.60;99.90;;;;;;5055858;28;20029;-75
2021/12/05 08:17:38;;;;;;;5.35;3.03;;;4.60;99.90;;;;;;5055637;28;20060;-75
2021/12/05 08:20:11;;;;;;;4.45;3.10;;;4.50;99.90;;;;;;5055823;28;20041;-75
2021/12/05 08:22:37;;;;;;;2.42;2.00;;;4.50;99.90;;;;;;5054524;28;20025;-75
2021/12/05 08:25:12;;;;;;;3.17;2.28;;;4.50;99.90;;;;;;5058979;28;20380;-75
2021/12/05 08:27:50;;;;;;;4.78;3.08;;;4.50;99.90;;;;;;5075765;28;20036;-75
2021/12/05 08:30:32;;;;;;;4.40;3.22;;;4.50;99.90;;;;;;5075613;28;20029;-75
2021/12/05 09:19:39;;;;;;;;;;;4.80;99.90;;;;;;5042556;28;20048;-75
2021/12/05 09:52:51;;;;;;;3.25;2.20;;;5.40;99.90;;;;;;5051330;28;20175;-74
2021/12/05 10:08:40;;;;;;;2.95;1.83;;;6.80;99.90;;;;;;5053984;28;20035;-74
2021/12/05 10:11:29;;;;;;;1.33;0.95;;;7.60;99.90;;;;;;5076010;28;20028;-74
2021/12/05 10:20:14;;;;;;;2.65;1.52;;;7.50;99.90;;;;;;5072901;28;20043;-73
2021/12/05 10:34:58;;;;;;;4.55;2.22;;;6.10;99.90;;;;;;5073724;28;20036;-76
2021/12/05 10:37:26;;;;;;;2.90;2.30;;;6.30;99.90;;;;;;5055224;28;20031;-74
2021/12/05 10:40:13;;;;;;;4.18;2.22;;;7.00;99.90;;;;;;5072181;28;20500;-74
2021/12/05 10:42:59;;;;;;;3.88;1.83;;;7.40;99.90;;;;;;5073276;28;20036;-74
2021/12/05 10:45:49;;;;;;;5.22;1.55;;;6.90;99.90;;;;;;5072598;28;20116;-73
2021/12/05 10:48:28;;;;;;;3.28;1.75;;;6.70;99.90;;;;;;5072342;28;20089;-74
2021/12/05 10:50:57;;;;;;;1.88;1.65;;;6.20;99.90;;;;;;5054958;28;20377;-74
2021/12/05 10:53:44;;;;;;;3.08;2.20;;;6.20;99.90;;;;;;5072522;28;20029;-74
2021/12/05 10:56:19;;;;;;;3.05;2.30;;;6.00;99.90;;;;;;5072630;28;20042;-73
2021/12/05 10:58:58;;;;;;;2.15;1.95;;;6.20;99.90;;;;;;5072792;28;20083;-74
2021/12/05 11:01:29;;;;;;;2.70;2.13;;;6.30;99.90;;;;;;5072469;28;20037;-75
2021/12/05 11:04:09;;;;;;;3.95;2.60;;;6.50;99.90;;;;;;5068994;28;20033;-74
2021/12/05 11:06:50;;;;;;;4.32;3.13;;;6.50;99.90;;;;;;5074481;28;20033;-74
2021/12/05 11:09:31;;;;;;;3.28;2.53;;;6.40;99.90;;;;;;5071528;28;20071;-75
2021/12/05 11:12:11;;;;;;;3.10;2.80;;;6.30;99.90;;;;;;5072711;28;20473;-75
2021/12/05 11:14:48;;;;;;;7.22;3.92;;;6.30;99.90;;;;;;5072342;28;20039;-74
2021/12/05 11:17:37;;;;;;;6.00;3.25;;;6.50;99.90;;;;;;5072532;28;20111;-74
2021/12/05 11:20:09;;;;;;;7.47;3.13;;;6.40;99.90;;;;;;5070996;28;20484;-74
2021/12/05 11:22:40;;;;;;;4.05;3.42;;;6.90;99.90;;;;;;5054395;28;20106;-76
2021/12/05 11:25:22;;;;;;;5.28;3.40;;;6.90;99.90;;;;;;5072329;28;20035;-73
2021/12/05 11:27:58;;;;;;;5.30;3.23;;;7.10;99.90;;;;;;5054007;28;20077;-74
2021/12/05 11:30:31;;;;;;;5.68;3.65;;;7.30;99.90;;;;;;5053678;28;20039;-73
2021/12/05 11:33:19;;;;;;;3.42;3.13;;;7.20;99.90;;;;;;5061650;28;20048;-74
2021/12/05 11:35:52;;;;;;;6.15;4.18;;;6.50;99.90;;;;;;5052063;28;20029;-77
2021/12/05 11:38:39;;;;;;;7.78;4.05;;;6.60;99.90;;;;;;5069175;28;20032;-73
2021/12/05 11:41:10;;;;;;;5.78;4.72;;;6.80;99.90;;;;;;5071840;28;20040;-76
2021/12/05 11:43:44;;;;;;;11.07;7.03;;;7.00;99.90;;;;;;5072245;28;20028;-76
2021/12/05 11:46:15;;;;;;;5.57;4.00;;;7.80;99.90;;;;;;5071774;28;20082;-77
2021/12/05 11:48:43;;;;;;;7.28;3.78;;;8.50;99.90;;;;;;5071673;28;20052;-75
2021/12/05 11:51:24;;;;;;;5.28;3.70;;;8.50;99.90;;;;;;5072095;28;20496;-76
2021/12/05 11:54:11;;;;;;;6.25;4.45;;;8.30;99.90;;;;;;5071374;28;20486;-76
2021/12/05 11:56:42;;;;;;;21.95;12.75;;;9.60;99.90;;;;;;5071976;28;20055;-75
2021/12/05 11:59:10;;;;;;;10.00;7.22;;;8.90;99.90;;;;;;5054253;28;20036;-76
2021/12/05 12:01:59;;;;;;;6.95;5.45;;;8.20;99.90;;;;;;5072121;28;20024;-75
2021/12/05 12:04:47;;;;;;;8.23;5.68;;;7.50;99.90;;;;;;5021912;28;20049;-75
2021/12/05 12:07:39;;;;;;;16.20;10.02;;;7.50;99.90;;;;;;5048530;28;20029;-75
2021/12/05 12:10:28;;;;;;;18.25;10.05;;;8.30;99.90;;;;;;5037925;28;20056;-76
2021/12/05 12:12:58;;;;;;;9.07;6.50;;;7.90;99.90;;;;;;5051526;28;20445;-76
2021/12/05 12:15:27;;;;;;;10.55;7.22;;;7.70;99.90;;;;;;5052070;28;20017;-75
2021/12/05 12:18:02;;;;;;;10.23;7.63;;;7.50;99.90;;;;;;5050314;28;20099;-75
2021/12/05 12:20:29;;;;;;;12.15;7.80;;;7.80;99.90;;;;;;5050450;28;20045;-75
2021/12/05 12:22:56;;;;;;;8.13;6.10;;;9.00;99.90;;;;;;5051532;28;20044;-77
2021/12/05 12:25:28;;;;;;;9.13;5.63;;;9.00;99.90;;;;;;5051557;28;20116;-75
2021/12/05 12:27:54;;;;;;;8.30;5.38;;;10.10;99.90;;;;;;5051126;28;20492;-74
2021/12/05 12:30:24;;;;;;;8.20;5.70;;;10.30;99.90;;;;;;5054990;28;20464;-74
2021/12/05 12:32:54;;;;;;;9.07;5.30;;;10.40;99.90;;;;;;5074883;28;20036;-75
2021/12/05 12:35:26;;;;;;;8.27;6.20;;;10.10;99.90;;;;;;5070734;28;20481;-73
2021/12/05 12:37:58;;;;;;;8.65;5.15;;;9.70;99.90;;;;;;5072052;28;20111;-75
2021/12/05 12:40:38;;;;;;;;;;;9.00;99.90;;;;;;5074719;28;20396;-74
2021/12/05 12:43:06;;;;;;;9.77;5.30;;;9.00;99.90;;;;;;5040204;28;19940;-75
2021/12/05 12:45:40;;;;;;;8.00;5.93;;;8.40;99.90;;;;;;5071855;28;20036;-74
2021/12/05 12:48:15;;;;;;;7.07;5.45;;;9.20;99.90;;;;;;5036470;28;20033;-75
2021/12/05 12:50:51;;;;;;;9.48;5.57;;;10.00;99.90;;;;;;5054978;28;20037;-75
2021/12/05 12:53:22;;;;;;;6.63;4.78;;;9.50;99.90;;;;;;5055053;28;20037;-75
2021/12/05 12:55:58;;;;;;;6.95;4.22;;;9.10;99.90;;;;;;5037287;28;20036;-73
2021/12/05 12:58:35;;;;;;;7.70;5.78;;;9.30;99.90;;;;;;5055014;28;20071;-75
2021/12/05 13:01:16;;;;;;;10.45;7.38;;;9.30;99.90;;;;;;5054843;28;20497;-75
2021/12/05 13:12:34;;;;;;;13.30;7.28;;;8.50;99.90;;;;;;5074886;28;20071;-75
2021/12/05 13:15:03;;;;;;;10.35;6.20;;;8.00;99.90;;;;;;5074721;28;20032;-74
2021/12/05 13:17:48;;;;;;;10.43;7.18;;;7.80;99.90;;;;;;5074709;28;20021;-74
2021/12/05 13:20:17;;;;;;;12.30;7.72;;;7.70;99.90;;;;;;5074344;28;20044;-75
2021/12/05 13:23:08;;;;;;;9.63;7.95;;;7.70;99.90;;;;;;5074494;28;20095;-74
2021/12/05 13:26:02;;;;;;;8.48;7.05;;;7.90;99.90;;;;;;5055717;28;20132;-75
2021/12/05 13:28:39;;;;;;;12.45;7.15;;;7.90;99.90;;;;;;5054421;28;20043;-75
2021/12/05 13:31:27;;;;;;;9.43;6.13;;;8.40;99.90;;;;;;5054448;28;20029;-73
2021/12/05 13:34:27;;;;;;;7.97;5.70;;;8.30;99.90;;;;;;5038846;28;20064;-75
2021/12/05 13:37:22;;;;;;;9.63;6.65;;;7.90;99.90;;;;;;5054386;28;20525;-74
2021/12/05 13:40:15;;;;;;;10.55;7.43;;;7.50;99.90;;;;;;5034397;28;20057;-74
2021/12/05 13:42:51;;;;;;;9.27;6.63;;;7.50;99.90;;;;;;5054120;28;20025;-75
2021/12/05 13:45:26;;;;;;;9.05;7.50;;;7.30;99.90;;;;;;5054217;28;20037;-74
2021/12/05 13:47:51;;;;;;;11.35;8.32;;;7.20;99.90;;;;;;5053946;28;20048;-74
2021/12/05 13:50:28;;;;;;;11.55;8.55;;;7.00;99.90;;;;;;5054319;28;20033;-74
2021/12/05 13:53:02;;;;;;;12.80;9.18;;;7.20;99.90;;;;;;5053732;28;20039;-74
2021/12/05 13:56:03;;;;;;;11.77;8.60;;;7.30;99.90;;;;;;5073006;28;20030;-74
2021/12/05 13:58:45;;;;;;;10.30;8.50;;;7.20;99.90;;;;;;5073849;28;20154;-74
2021/12/05 14:01:16;;;;;;;8.65;7.72;;;7.40;99.90;;;;;;5073905;28;20028;-74
2021/12/05 14:03:49;;;;;;;26.48;14.68;;;7.60;99.90;;;;;;5073571;28;20098;-74
2021/12/05 14:06:24;;;;;;;23.48;13.48;;;7.70;99.90;;;;;;5073942;28;20028;-74
2021/12/05 14:08:52;;;;;;;17.45;10.65;;;7.80;99.90;;;;;;5073577;28;20037;-74
2021/12/05 14:11:19;;;;;;;17.42;10.52;;;7.90;99.90;;;;;;5073841;28;20017;-75
2021/12/05 14:13:45;;;;;;;14.38;8.90;;;8.10;99.90;;;;;;5073749;28;20040;-74
2021/12/05 14:16:11;;;;;;;10.95;7.20;;;8.20;99.90;;;;;;5073740;28;20108;-75
2021/12/05 14:18:37;;;;;;;7.50;6.10;;;8.10;99.90;;;;;;5072809;28;20123;-74
2021/12/05 14:21:18;;;;;;;9.30;6.72;;;8.20;99.90;;;;;;5073681;28;20452;-75
2021/12/05 14:23:54;;;;;;;8.68;6.45;;;7.70;99.90;;;;;;5073508;28;20036;-75
2021/12/05 14:26:25;;;;;;;8.10;6.05;;;7.90;99.90;;;;;;5073521;28;20098;-74
2021/12/05 14:29:19;;;;;;;6.65;4.90;;;8.00;99.90;;;;;;5073550;28;20036;-74
2021/12/05 14:31:52;;;;;;;7.70;5.45;;;8.00;99.90;;;;;;5070474;28;20119;-75
2021/12/05 14:34:20;;;;;;;9.63;6.95;;;8.00;99.90;;;;;;5073445;28;20119;-75
2021/12/05 14:36:52;;;;;;;9.77;6.32;;;7.90;99.90;;;;;;5073355;28;20050;-74
2021/12/05 14:39:34;;;;;;;8.48;7.15;;;7.80;99.90;;;;;;5073165;28;20064;-75
2021/12/05 14:42:09;;;;;;;8.80;6.80;;;7.80;99.90;;;;;;5055292;28;20090;-74
2021/12/05 14:44:36;;;;;;;8.25;7.00;;;7.60;99.90;;;;;;5073181;28;20512;-73
2021/12/05 14:47:09;;;;;;;11.88;7.82;;;7.50;99.90;;;;;;5055004;28;20437;-74
2021/12/05 14:49:42;;;;;;;12.25;8.48;;;7.30;99.90;;;;;;5072873;28;20431;-74
2021/12/05 14:52:12;;;;;;;12.68;9.18;;;7.10;99.90;;;;;;5073028;28;20040;-75
2021/12/05 14:54:39;;;;;;;10.20;8.05;;;7.10;99.90;;;;;;5054910;28;20060;-75
2021/12/05 14:57:09;;;;;;;11.00;8.23;;;7.10;99.90;;;;;;5072945;28;20107;-74
2021/12/05 14:59:35;;;;;;;9.88;7.97;;;7.10;99.90;;;;;;5055132;28;20389;-74
2021/12/05 15:02:04;;;;;;;11.82;9.52;;;7.10;99.90;;;;;;5054963;28;20033;-74
2021/12/05 15:04:35;;;;;;;12.45;9.10;;;7.30;99.90;;;;;;5072588;28;20060;-74
2021/12/05 15:07:01;;;;;;;10.00;8.75;;;7.40;99.90;;;;;;5038020;28;20028;-74
2021/12/05 15:09:42;;;;;;;11.75;8.82;;;7.30;99.90;;;;;;5072571;28;20123;-75
2021/12/05 15:12:16;;;;;;;10.35;8.50;;;7.40;99.90;;;;;;5072950;28;20029;-75
2021/12/05 15:14:45;;;;;;;11.70;9.15;;;7.70;99.90;;;;;;5072464;28;20028;-74
2021/12/05 15:17:17;;;;;;;12.20;9.50;;;7.70;99.90;;;;;;5072694;28;20013;-75
2021/12/05 15:19:51;;;;;;;12.77;9.32;;;7.90;99.90;;;;;;5072485;28;20056;-75
2021/12/05 15:22:16;;;;;;;11.63;9.10;;;7.70;99.90;;;;;;5072871;28;20041;-74
2021/12/05 15:24:55;;;;;;;15.82;9.98;;;7.20;99.90;;;;;;5072385;28;20036;-74
2021/12/05 15:27:23;;;;;;;15.60;11.40;;;7.20;99.90;;;;;;5072680;28;20491;-74
2021/12/05 15:29:56;;;;;;;17.77;12.50;;;7.30;99.90;;;;;;5072198;28;20147;-75
2021/12/05 15:32:24;;;;;;;32.70;19.33;;;7.40;99.90;;;;;;5073273;28;20040;-75
2021/12/05 15:34:53;;;;;;;27.83;16.42;;;7.50;99.90;;;;;;5072664;28;20480;-74
2021/12/05 15:37:19;;;;;;;17.77;12.73;;;7.50;99.90;;;;;;5072571;28;20024;-75
2021/12/05 15:39:47;;;;;;;16.10;11.05;;;7.70;99.90;;;;;;5072394;28;20040;-76
2021/12/05 15:42:26;;;;;;;15.00;10.30;;;7.70;99.90;;;;;;5072476;28;20104;-75
2021/12/05 15:44:54;;;;;;;13.35;8.77;;;7.60;99.90;;;;;;5072247;28;20043;-74
2021/12/05 15:47:23;;;;;;;12.23;9.48;;;7.90;99.90;;;;;;5072516;28;20404;-76
2021/12/05 15:49:55;;;;;;;9.45;8.45;;;7.80;99.90;;;;;;5072605;28;20411;-75
2021/12/05 15:52:34;;;;;;;13.40;9.77;;;7.90;99.90;;;;;;5072255;28;20021;-73
2021/12/05 15:55:03;;;;;;;10.85;9.35;;;7.80;99.90;;;;;;5072545;28;20468;-74
2021/12/05 15:57:38;;;;;;;12.52;9.52;;;7.80;99.90;;;;;;5054568;28;20035;-75
2021/12/05 16:00:21;;;;;;;12.25;9.45;;;7.70;99.90;;;;;;5072230;28;20040;-74
2021/12/05 16:02:54;;;;;;;10.88;8.95;;;7.60;99.90;;;;;;5072331;28;20065;-76
2021/12/05 16:05:22;;;;;;;14.07;9.10;;;7.80;99.90;;;;;;5072439;28;20028;-75
2021/12/05 16:07:49;;;;;;;11.50;9.38;;;7.80;99.90;;;;;;5075987;28;20104;-75
2021/12/05 16:10:22;;;;;;;13.93;10.52;;;7.90;99.90;;;;;;5076242;28;20110;-75
2021/12/05 16:12:51;;;;;;;15.25;11.15;;;7.90;99.90;;;;;;5075751;28;20036;-75
2021/12/05 16:15:19;;;;;;;23.92;10.70;;;7.90;99.90;;;;;;5075955;28;20032;-75
2021/12/05 16:18:03;;;;;;;19.98;12.13;;;8.00;99.90;;;;;;5075743;28;20027;-75
2021/12/05 16:20:44;;;;;;;20.38;14.30;;;8.20;99.90;;;;;;5075813;28;20076;-74
2021/12/05 16:23:17;;;;;;;21.65;13.00;;;8.00;99.90;;;;;;5075750;28;20035;-75
2021/12/05 16:25:56;;;;;;;18.33;13.93;;;8.00;99.90;;;;;;5050629;28;20115;-75
2021/12/05 16:28:51;;;;;;;19.30;12.55;;;8.00;99.90;;;;;;5037338;28;20489;-75
2021/12/05 16:31:21;;;;;;;20.63;11.85;;;8.20;99.90;;;;;;5044088;28;20072;-76
2021/12/05 16:33:51;;;;;;;30.67;17.92;;;8.10;99.90;;;;;;5075302;28;20033;-75
2021/12/05 16:36:19;;;;;;;43.42;22.75;;;8.30;99.90;;;;;;5075201;28;20029;-76
2021/12/05 16:38:47;;;;;;;52.40;26.42;;;8.40;99.90;;;;;;5056456;28;20036;-76
2021/12/05 16:41:17;;;;;;;32.85;18.27;;;8.30;99.90;;;;;;5075285;28;20039;-76
2021/12/05 16:43:54;;;;;;;19.10;14.25;;;8.00;99.90;;;;;;5074600;28;20038;-77
2021/12/05 16:46:24;;;;;;;18.92;13.75;;;7.80;99.90;;;;;;5074158;28;20437;-74
2021/12/05 16:48:52;;;;;;;16.83;12.75;;;7.80;99.90;;;;;;5064676;28;20062;-75
2021/12/05 16:51:23;;;;;;;14.63;11.00;;;7.90;99.90;;;;;;5072771;28;20019;-75
2021/12/05 16:53:52;;;;;;;12.82;10.18;;;8.00;99.90;;;;;;5068262;28;20036;-75
2021/12/05 16:56:40;;;;;;;12.48;10.68;;;8.20;99.90;;;;;;5064341;28;20409;-75
2021/12/05 16:59:18;;;;;;;11.48;9.60;;;8.40;99.90;;;;;;5067383;28;20045;-75
2021/12/05 17:01:45;;;;;;;14.07;10.30;;;8.40;99.90;;;;;;5073449;28;20025;-75
2021/12/05 17:04:11;;;;;;;14.18;10.85;;;8.30;99.90;;;;;;5074647;28;20064;-74
2021/12/05 17:06:46;;;;;;;11.95;9.60;;;8.20;99.90;;;;;;5074382;28;20535;-75
2021/12/05 17:09:13;;;;;;;14.20;10.02;;;8.30;99.90;;;;;;5074308;28;20104;-74
2021/12/05 17:11:39;;;;;;;19.23;11.90;;;8.40;99.90;;;;;;5074298;28;20432;-75
2021/12/05 17:14:05;;;;;;;15.95;12.00;;;8.40;99.90;;;;;;5056312;28;20066;-73
2021/12/05 17:16:32;;;;;;;16.17;12.10;;;8.50;99.90;;;;;;5073183;28;20033;-77
2021/12/05 17:19:04;;;;;;;16.17;11.38;;;8.60;99.90;;;;;;5074043;28;20317;-78
2021/12/05 17:21:40;;;;;;;15.90;11.88;;;8.30;99.90;;;;;;5074591;28;20055;-77
2021/12/05 17:24:06;;;;;;;14.20;11.63;;;8.00;99.90;;;;;;5073820;28;20481;-77
2021/12/05 17:26:37;;;;;;;16.98;11.10;;;7.50;99.90;;;;;;5058645;28;20021;-77
2021/12/05 17:29:12;;;;;;;14.32;11.27;;;7.40;99.90;;;;;;5054137;28;20040;-77
2021/12/05 17:31:42;;;;;;;16.25;12.02;;;7.30;99.90;;;;;;5035681;28;20497;-77
2021/12/05 17:34:18;;;;;;;20.33;13.15;;;7.20;99.90;;;;;;5052758;28;20047;-77
2021/12/05 17:37:05;;;;;;;22.63;12.98;;;7.20;99.90;;;;;;5054295;28;20029;-77
2021/12/05 17:39:35;;;;;;;18.55;13.13;;;7.10;99.90;;;;;;5053726;28;20053;-77
2021/12/05 17:42:08;;;;;;;17.05;12.32;;;7.30;99.90;;;;;;5054371;28;20049;-77
2021/12/05 17:44:34;;;;;;;18.60;13.50;;;7.50;99.90;;;;;;5054171;28;20073;-77
2021/12/05 17:47:04;;;;;;;21.35;14.55;;;7.60;99.90;;;;;;5052869;28;20024;-76
2021/12/05 17:49:33;;;;;;;19.95;15.27;;;7.80;99.90;;;;;;5069448;28;20389;-77
2021/12/05 17:52:00;;;;;;;26.55;15.43;;;7.80;99.90;;;;;;5073998;28;20480;-77
2021/12/05 17:54:50;;;;;;;31.13;15.27;;;8.00;99.90;;;;;;5064111;28;20037;-77
2021/12/05 17:57:33;;;;;;;21.48;15.25;;;7.90;99.90;;;;;;5049911;28;20086;-77
2021/12/05 18:00:12;;;;;;;22.95;16.08;;;7.90;99.90;;;;;;5072229;28;20040;-77
2021/12/05 18:02:53;;;;;;;21.83;15.82;;;8.00;99.90;;;;;;5071839;28;20037;-75
2021/12/05 18:05:31;;;;;;;24.10;17.00;;;7.90;99.90;;;;;;5073441;28;20480;-76
2021/12/05 18:08:00;;;;;;;27.17;16.65;;;7.70;99.90;;;;;;5073411;28;20081;-75
2021/12/05 18:10:29;;;;;;;24.25;15.77;;;7.60;99.90;;;;;;5035378;28;20355;-75
2021/12/05 18:12:58;;;;;;;25.52;17.88;;;7.60;99.90;;;;;;5070017;28;20028;-77
2021/12/05 18:15:28;;;;;;;23.52;17.08;;;7.70;99.90;;;;;;5073102;28;20028;-75
2021/12/05 18:17:57;;;;;;;22.30;15.20;;;7.70;99.90;;;;;;5073042;28;20107;-75
2021/12/05 18:20:25;;;;;;;22.70;15.40;;;7.60;99.90;;;;;;5071547;28;20032;-78
2021/12/05 18:22:58;;;;;;;21.58;14.95;;;7.60;99.90;;;;;;5072571;28;20017;-76
2021/12/05 18:25:25;;;;;;;22.90;15.32;;;7.60;99.90;;;;;;5071651;28;20031;-75
2021/12/05 18:27:50;;;;;;;19.52;14.73;;;7.60;99.90;;;;;;5053867;28;20419;-75
2021/12/05 18:30:22;;;;;;;20.58;15.63;;;7.60;99.90;;;;;;5071892;28;20021;-77
2021/12/05 18:32:48;;;;;;;22.87;16.07;;;7.70;99.90;;;;;;5048639;28;20033;-79
2021/12/05 18:35:16;;;;;;;21.17;16.75;;;7.70;99.90;;;;;;5034543;28;20013;-77
2021/12/05 18:37:43;;;;;;;25.75;17.40;;;7.60;99.90;;;;;;5052684;28;20033;-77
2021/12/05 18:40:11;;;;;;;21.70;16.35;;;7.60;99.90;;;;;;5052369;28;20052;-76
2021/12/05 18:42:37;;;;;;;24.48;16.08;;;7.50;99.90;;;;;;5053306;28;20021;-77
2021/12/05 18:45:05;;;;;;;28.33;17.98;;;7.40;99.90;;;;;;5053009;28;20083;-79
2021/12/05 18:47:32;;;;;;;25.63;17.67;;;7.50;99.90;;;;;;5052992;28;20428;-79
2021/12/05 18:49:58;;;;;;;27.88;18.15;;;7.40;99.90;;;;;;5052896;28;20159;-79
2021/12/05 18:52:25;;;;;;;23.75;16.13;;;7.60;99.90;;;;;;5052803;28;20021;-77